Time;durP1;ratioP1;P1;durP2;ratioP2;P2;SDS_P1;SDS_P2;PMS_P1;PMS_P2;Temp;Humidity;BMP_temperature;BMP_pressure;BME280_temperature;BME280_humidity;BME280_pressure;Samples;Min_cycle;Max_cycle;Signal;HPM_P1;HPM_P2
2021/05/22 00:01:19;;;;;;;16.30;2.45;;;;;;;;;;4992898;28;20486;-71
2021/05/22 00:03:45;;;;;;;20.27;3.88;;;;;;;;;;4976700;28;20031;-71
2021/05/22 00:06:11;;;;;;;17.58;2.13;;;;;;;;;;5004516;28;20088;-71
2021/05/22 00:08:37;;;;;;;16.08;3.13;;;;;;;;;;4981141;28;20479;-71
2021/05/22 00:11:03;;;;;;;18.55;2.78;;;;;;;;;;5012443;28;20395;-71
2021/05/22 00:13:29;;;;;;;17.92;2.53;;;;;;;;;;5012457;28;20025;-71
2021/05/22 00:15:55;;;;;;;16.73;2.67;;;;;;;;;;5005475;28;20105;-71
2021/05/22 00:18:21;;;;;;;17.38;2.55;;;;;;;;;;4995234;28;20431;-71
2021/05/22 00:20:47;;;;;;;14.80;2.38;;;;;;;;;;5006931;28;20030;-71
2021/05/22 00:23:14;;;;;;;15.13;2.45;;;;;;;;;;5007518;28;20038;-71
2021/05/22 00:25:40;;;;;;;14.13;3.85;;;;;;;;;;4994411;28;20099;-71
2021/05/22 00:28:06;;;;;;;18.83;3.05;;;;;;;;;;4981837;28;20030;-71
2021/05/22 00:30:32;;;;;;;9.70;1.98;;;;;;;;;;5008083;28;20037;-71
2021/05/22 00:32:58;;;;;;;11.13;2.67;;;;;;;;;;4998955;28;20030;-71
2021/05/22 00:35:23;;;;;;;19.92;2.72;;;;;;;;;;4992941;28;20030;-71
2021/05/22 00:37:49;;;;;;;16.80;2.60;;;;;;;;;;5004117;28;20030;-71
2021/05/22 00:40:15;;;;;;;16.15;2.55;;;;;;;;;;5012393;28;20029;-71
2021/05/22 00:42:44;;;;;;;15.65;3.58;;;;;;;;;;5010741;28;20412;-71
2021/05/22 00:45:15;;;;;;;21.52;2.72;;;;;;;;;;5002802;28;20137;-71
2021/05/22 00:47:42;;;;;;;19.98;3.50;;;;;;;;;;4998464;28;20030;-71
2021/05/22 00:50:10;;;;;;;14.95;2.90;;;;;;;;;;5012933;28;20081;-71
2021/05/22 00:52:36;;;;;;;17.50;3.13;;;;;;;;;;5010382;28;20037;-71
2021/05/22 00:55:03;;;;;;;20.27;3.60;;;;;;;;;;4997667;28;20289;-72
2021/05/22 00:57:29;;;;;;;11.35;1.98;;;;;;;;;;5012329;28;20056;-71
2021/05/22 00:59:55;;;;;;;12.98;2.00;;;;;;;;;;5006091;28;20018;-71
2021/05/22 01:02:23;;;;;;;16.65;3.05;;;;;;;;;;5011807;28;20018;-71
2021/05/22 01:04:49;;;;;;;15.48;2.47;;;;;;;;;;5005496;28;20469;-71
2021/05/22 01:07:15;;;;;;;15.95;2.65;;;;;;;;;;4985802;28;20026;-71
2021/05/22 01:09:41;;;;;;;17.05;2.72;;;;;;;;;;5011526;28;20033;-71
2021/05/22 01:12:08;;;;;;;14.65;2.60;;;;;;;;;;5002467;28;20025;-71
2021/05/22 01:14:54;;;;;;;16.45;2.17;;;;;;;;;;5002150;28;20030;-71
2021/05/22 01:17:20;;;;;;;10.57;2.72;;;;;;;;;;5000548;28;20487;-71
2021/05/22 01:19:52;;;;;;;15.10;2.70;;;;;;;;;;4996889;28;20037;-71
2021/05/22 01:22:19;;;;;;;9.95;2.28;;;;;;;;;;5003378;28;20084;-71
2021/05/22 01:24:48;;;;;;;9.00;1.50;;;;;;;;;;5010980;28;20167;-71
2021/05/22 01:27:15;;;;;;;12.33;2.40;;;;;;;;;;5008135;28;20368;-71
2021/05/22 01:29:41;;;;;;;10.15;2.05;;;;;;;;;;5005379;28;20033;-71
2021/05/22 01:32:08;;;;;;;10.90;2.20;;;;;;;;;;5002325;28;20400;-71
2021/05/22 01:34:34;;;;;;;11.88;1.55;;;;;;;;;;4988421;28;20018;-72
2021/05/22 01:37:00;;;;;;;15.35;2.67;;;;;;;;;;4999992;28;20616;-71
2021/05/22 01:39:26;;;;;;;10.32;1.52;;;;;;;;;;5007939;28;20026;-71
2021/05/22 01:41:52;;;;;;;10.88;1.67;;;;;;;;;;4997281;28;20077;-72
2021/05/22 01:44:19;;;;;;;11.32;2.00;;;;;;;;;;5000781;28;20026;-71
2021/05/22 01:46:47;;;;;;;10.05;1.67;;;;;;;;;;4991559;28;20256;-72
2021/05/22 01:49:13;;;;;;;14.57;1.58;;;;;;;;;;4995257;28;20025;-71
2021/05/22 01:51:40;;;;;;;10.07;1.73;;;;;;;;;;5010960;28;20091;-72
2021/05/22 01:54:08;;;;;;;8.75;1.98;;;;;;;;;;5010751;28;20033;-72
2021/05/22 01:56:34;;;;;;;11.32;2.70;;;;;;;;;;4996690;28;20057;-72
2021/05/22 01:59:00;;;;;;;11.50;2.13;;;;;;;;;;5000286;28;20034;-72
2021/05/22 02:01:27;;;;;;;13.02;2.80;;;;;;;;;;5003045;28;20033;-72
2021/05/22 02:03:56;;;;;;;11.43;2.42;;;;;;;;;;5010534;28;20029;-72
2021/05/22 02:06:24;;;;;;;9.27;2.30;;;;;;;;;;5005853;28;20053;-72
2021/05/22 02:08:52;;;;;;;9.02;2.25;;;;;;;;;;5010719;28;20383;-72
2021/05/22 02:11:19;;;;;;;10.70;2.47;;;;;;;;;;4995123;28;20033;-72
2021/05/22 02:13:45;;;;;;;11.65;2.38;;;;;;;;;;5001479;28;20487;-72
2021/05/22 02:16:12;;;;;;;13.20;2.78;;;;;;;;;;5002506;28;20015;-72
2021/05/22 02:18:38;;;;;;;18.52;2.92;;;;;;;;;;5003804;28;20357;-72
2021/05/22 02:21:05;;;;;;;13.35;2.17;;;;;;;;;;4996196;28;20117;-72
2021/05/22 02:23:34;;;;;;;19.17;3.03;;;;;;;;;;4985719;28;20018;-72
2021/05/22 02:26:01;;;;;;;10.60;1.80;;;;;;;;;;5004945;28;20058;-72
2021/05/22 02:28:29;;;;;;;9.45;1.80;;;;;;;;;;5007344;28;20037;-72
2021/05/22 02:30:55;;;;;;;15.25;2.28;;;;;;;;;;4993749;28;20603;-72
2021/05/22 02:33:21;;;;;;;11.05;2.53;;;;;;;;;;4998202;28;20030;-72
2021/05/22 02:35:48;;;;;;;10.77;2.65;;;;;;;;;;5005840;28;20049;-72
2021/05/22 02:38:15;;;;;;;8.20;1.33;;;;;;;;;;4992263;28;20479;-72
2021/05/22 02:40:41;;;;;;;13.85;3.20;;;;;;;;;;5019649;28;20037;-72
2021/05/22 02:43:09;;;;;;;13.15;2.60;;;;;;;;;;4998043;28;20030;-72
2021/05/22 02:45:37;;;;;;;10.18;2.42;;;;;;;;;;4998479;28;20123;-72
2021/05/22 02:48:04;;;;;;;12.63;2.13;;;;;;;;;;4995512;28;20392;-72
2021/05/22 02:50:31;;;;;;;11.73;2.40;;;;;;;;;;4997342;28;20077;-72
2021/05/22 02:52:57;;;;;;;14.40;2.08;;;;;;;;;;4980718;28;20491;-72
2021/05/22 02:55:23;;;;;;;15.32;2.78;;;;;;;;;;5010654;28;20053;-71
2021/05/22 02:57:50;;;;;;;15.20;2.50;;;;;;;;;;4992746;28;20113;-71
2021/05/22 03:00:16;;;;;;;15.50;2.53;;;;;;;;;;5005303;28;20072;-71
2021/05/22 03:02:43;;;;;;;11.90;2.08;;;;;;;;;;4987093;28;20034;-71
2021/05/22 03:05:10;;;;;;;17.45;3.15;;;;;;;;;;5001570;28;20026;-71
2021/05/22 03:07:36;;;;;;;7.97;1.85;;;;;;;;;;5001611;28;20117;-71
2021/05/22 03:10:03;;;;;;;28.55;3.53;;;;;;;;;;5002669;28;20037;-70
2021/05/22 03:12:32;;;;;;;9.13;2.65;;;;;;;;;;4988199;28;20033;-70
2021/05/22 03:14:58;;;;;;;22.75;3.08;;;;;;;;;;5009776;28;20022;-70
2021/05/22 03:17:24;;;;;;;19.08;3.47;;;;;;;;;;5013745;28;20030;-70
2021/05/22 03:19:50;;;;;;;9.10;1.95;;;;;;;;;;4995767;28;20041;-70
2021/05/22 03:22:16;;;;;;;13.82;2.30;;;;;;;;;;5014965;28;20022;-70
2021/05/22 03:24:42;;;;;;;11.35;1.92;;;;;;;;;;5002392;28;20029;-71
2021/05/22 03:27:08;;;;;;;19.48;3.22;;;;;;;;;;4992954;28;20036;-71
2021/05/22 03:29:35;;;;;;;7.30;2.78;;;;;;;;;;5007871;28;20094;-71
2021/05/22 03:32:01;;;;;;;8.80;2.50;;;;;;;;;;5005548;28;20433;-70
2021/05/22 03:34:27;;;;;;;9.65;2.05;;;;;;;;;;5013269;28;20030;-70
2021/05/22 03:36:53;;;;;;;14.60;2.50;;;;;;;;;;5009042;28;20021;-71
2021/05/22 03:39:19;;;;;;;9.55;2.80;;;;;;;;;;5008878;28;20483;-71
2021/05/22 03:41:45;;;;;;;8.80;2.25;;;;;;;;;;5007735;28;20038;-71
2021/05/22 03:44:11;;;;;;;8.75;2.20;;;;;;;;;;4994893;28;20117;-71
2021/05/22 03:46:37;;;;;;;11.15;2.28;;;;;;;;;;5011532;28;20121;-71
2021/05/22 03:49:03;;;;;;;11.60;1.90;;;;;;;;;;5011116;28;20030;-71
2021/05/22 03:51:30;;;;;;;11.63;2.05;;;;;;;;;;4992825;28;20048;-71
2021/05/22 03:53:56;;;;;;;10.75;2.05;;;;;;;;;;5002181;28;20054;-71
2021/05/22 03:56:23;;;;;;;11.32;2.30;;;;;;;;;;5012860;28;20030;-72
2021/05/22 03:58:49;;;;;;;13.57;3.45;;;;;;;;;;5012767;28;20471;-72
2021/05/22 04:01:15;;;;;;;13.00;3.38;;;;;;;;;;5011655;28;20049;-72
2021/05/22 04:03:41;;;;;;;7.53;3.22;;;;;;;;;;5001034;28;20464;-72
2021/05/22 04:06:07;;;;;;;13.18;4.30;;;;;;;;;;4987818;28;20030;-72
2021/05/22 04:08:33;;;;;;;13.43;4.85;;;;;;;;;;4996113;28;20031;-72
2021/05/22 04:10:59;;;;;;;19.83;6.30;;;;;;;;;;5006607;28;20531;-72
2021/05/22 04:13:25;;;;;;;12.27;4.28;;;;;;;;;;4994166;28;20073;-72
2021/05/22 04:15:51;;;;;;;11.65;2.97;;;;;;;;;;5012957;28;20101;-72
2021/05/22 04:18:17;;;;;;;13.02;3.38;;;;;;;;;;4995987;28;20113;-72
2021/05/22 04:20:44;;;;;;;10.25;2.80;;;;;;;;;;5010904;28;20025;-72
2021/05/22 04:23:10;;;;;;;8.75;3.15;;;;;;;;;;4993863;28;20041;-72
2021/05/22 04:25:36;;;;;;;7.65;3.92;;;;;;;;;;4990329;28;20034;-72
2021/05/22 04:28:01;;;;;;;10.32;3.58;;;;;;;;;;5019389;28;20029;-72
2021/05/22 04:30:27;;;;;;;13.77;4.07;;;;;;;;;;5003944;28;20045;-72
2021/05/22 04:32:54;;;;;;;9.70;4.20;;;;;;;;;;5012296;28;20097;-72
2021/05/22 04:35:20;;;;;;;12.63;4.97;;;;;;;;;;5011016;28;20392;-72
2021/05/22 04:37:46;;;;;;;14.80;5.43;;;;;;;;;;4998124;28;20033;-72
2021/05/22 04:40:12;;;;;;;9.18;3.90;;;;;;;;;;5001967;28;20487;-72
2021/05/22 04:42:39;;;;;;;10.73;4.65;;;;;;;;;;4993884;28;20125;-72
2021/05/22 04:45:05;;;;;;;12.43;3.65;;;;;;;;;;5003908;28;20083;-72
2021/05/22 04:47:31;;;;;;;9.20;3.40;;;;;;;;;;4995541;28;20120;-72
2021/05/22 04:49:57;;;;;;;14.00;3.10;;;;;;;;;;5003678;28;20025;-72
2021/05/22 04:52:24;;;;;;;13.98;3.85;;;;;;;;;;5004269;28;20038;-72
2021/05/22 04:54:50;;;;;;;10.55;3.95;;;;;;;;;;5004077;28;20028;-72
2021/05/22 04:57:17;;;;;;;11.20;3.75;;;;;;;;;;5009630;28;20037;-72
2021/05/22 04:59:42;;;;;;;13.25;4.03;;;;;;;;;;5005589;28;20072;-72
2021/05/22 05:02:08;;;;;;;10.75;3.25;;;;;;;;;;4993693;28;20030;-72
2021/05/22 05:04:34;;;;;;;10.20;4.43;;;;;;;;;;4994481;28;20092;-72
2021/05/22 05:07:03;;;;;;;10.10;4.18;;;;;;;;;;5002570;28;20376;-72
2021/05/22 05:09:29;;;;;;;10.20;4.43;;;;;;;;;;5011349;28;20075;-72
2021/05/22 05:11:54;;;;;;;10.10;5.10;;;;;;;;;;5011395;28;20089;-72
2021/05/22 05:14:20;;;;;;;16.15;4.80;;;;;;;;;;5009204;28;20610;-72
2021/05/22 05:16:46;;;;;;;11.50;4.93;;;;;;;;;;4997476;28;20109;-72
2021/05/22 05:19:12;;;;;;;17.58;6.30;;;;;;;;;;5002861;28;20040;-72
2021/05/22 05:21:38;;;;;;;12.02;6.72;;;;;;;;;;4993443;28;20484;-72
2021/05/22 05:24:04;;;;;;;12.48;6.38;;;;;;;;;;5017949;28;20050;-72
2021/05/22 05:26:30;;;;;;;14.50;7.60;;;;;;;;;;4986374;28;20037;-72
2021/05/22 05:28:56;;;;;;;11.20;6.85;;;;;;;;;;5003160;28;20117;-72
2021/05/22 05:31:22;;;;;;;14.85;6.38;;;;;;;;;;4999216;28;20033;-72
2021/05/22 05:33:48;;;;;;;19.80;7.72;;;;;;;;;;4987367;28;20031;-72
2021/05/22 05:36:14;;;;;;;13.80;5.75;;;;;;;;;;4997560;28;20474;-72
2021/05/22 05:38:40;;;;;;;12.52;6.05;;;;;;;;;;4992227;28;20431;-71
2021/05/22 05:41:06;;;;;;;15.20;6.32;;;;;;;;;;4994140;28;20032;-71
2021/05/22 05:43:32;;;;;;;11.30;6.00;;;;;;;;;;5000967;28;20080;-71
2021/05/22 05:45:58;;;;;;;9.95;5.03;;;;;;;;;;5011760;28;20042;-71
2021/05/22 05:48:24;;;;;;;15.82;4.72;;;;;;;;;;5001406;28;20065;-71
2021/05/22 05:50:49;;;;;;;16.23;5.03;;;;;;;;;;5006237;28;20030;-71
2021/05/22 05:53:16;;;;;;;11.80;5.30;;;;;;;;;;5004091;28;20087;-71
2021/05/22 05:55:42;;;;;;;16.65;5.85;;;;;;;;;;5004509;28;20371;-71
2021/05/22 05:58:08;;;;;;;9.27;4.78;;;;;;;;;;5010125;28;20025;-72
2021/05/22 06:00:34;;;;;;;14.32;4.90;;;;;;;;;;5010194;28;20216;-71
2021/05/22 06:02:59;;;;;;;7.78;4.28;;;;;;;;;;5001339;28;20026;-72
2021/05/22 06:05:25;;;;;;;16.42;4.82;;;;;;;;;;5010624;28;20041;-71
2021/05/22 06:07:51;;;;;;;9.68;4.32;;;;;;;;;;5012807;28;20033;-71
2021/05/22 06:10:17;;;;;;;13.95;4.00;;;;;;;;;;5006277;28;20026;-72
2021/05/22 06:12:45;;;;;;;12.77;3.50;;;;;;;;;;5010715;28;20038;-71
2021/05/22 06:17:40;;;;;;;19.65;3.92;;;;;;;;;;5003810;28;20034;-72
2021/05/22 06:20:07;;;;;;;14.98;3.35;;;;;;;;;;4989188;28;20069;-71
2021/05/22 06:22:33;;;;;;;16.60;3.35;;;;;;;;;;5003980;28;20030;-71
2021/05/22 06:24:59;;;;;;;17.42;3.45;;;;;;;;;;4994056;28;20384;-72
2021/05/22 06:27:25;;;;;;;15.93;3.25;;;;;;;;;;4989167;28;20030;-71
2021/05/22 06:29:50;;;;;;;8.65;2.55;;;;;;;;;;4998057;28;20510;-71
2021/05/22 06:32:16;;;;;;;12.13;2.85;;;;;;;;;;5004306;28;20427;-72
2021/05/22 06:34:42;;;;;;;14.63;3.08;;;;;;;;;;5008795;28;20356;-71
2021/05/22 06:37:08;;;;;;;13.25;3.00;;;;;;;;;;5009500;28;20018;-72
2021/05/22 06:39:34;;;;;;;15.25;2.88;;;;;;;;;;5005234;28;20049;-71
2021/05/22 06:42:00;;;;;;;9.40;2.55;;;;;;;;;;5004078;28;20026;-72
2021/05/22 06:44:40;;;;;;;11.38;3.10;;;;;;;;;;5006331;28;20025;-72
2021/05/22 06:47:06;;;;;;;18.38;3.15;;;;;;;;;;4999015;28;20124;-72
2021/05/22 06:49:32;;;;;;;13.77;1.98;;;;;;;;;;5005281;28;20575;-72
2021/05/22 06:51:59;;;;;;;9.77;1.98;;;;;;;;;;5008976;28;20129;-71
2021/05/22 06:54:26;;;;;;;13.73;2.17;;;;;;;;;;5002256;28;20406;-72
2021/05/22 06:56:52;;;;;;;15.30;1.83;;;;;;;;;;5010225;28;20023;-71
2021/05/22 06:59:18;;;;;;;11.88;2.13;;;;;;;;;;5003881;28;20108;-71
2021/05/22 07:01:44;;;;;;;18.92;2.70;;;;;;;;;;5009967;28;20468;-71
2021/05/22 07:04:10;;;;;;;8.57;1.63;;;;;;;;;;4996065;28;20026;-71
2021/05/22 07:06:35;;;;;;;14.43;2.08;;;;;;;;;;4991453;28;20465;-71
2021/05/22 07:09:01;;;;;;;11.93;2.75;;;;;;;;;;4994682;28;20034;-71
2021/05/22 07:11:27;;;;;;;10.60;2.30;;;;;;;;;;5002190;28;20026;-71
2021/05/22 07:13:53;;;;;;;14.55;3.28;;;;;;;;;;5003616;28;20026;-72
2021/05/22 07:16:19;;;;;;;10.65;1.98;;;;;;;;;;4982492;28;20029;-71
2021/05/22 07:18:45;;;;;;;9.82;1.80;;;;;;;;;;5005448;28;20046;-72
2021/05/22 07:21:11;;;;;;;10.60;1.83;;;;;;;;;;4995125;28;20093;-71
2021/05/22 07:23:37;;;;;;;10.57;1.50;;;;;;;;;;4996192;28;20103;-72
2021/05/22 07:26:04;;;;;;;7.65;1.42;;;;;;;;;;5001426;28;20032;-72
2021/05/22 07:28:32;;;;;;;12.57;2.35;;;;;;;;;;5006287;28;20023;-72
2021/05/22 07:31:00;;;;;;;9.02;1.80;;;;;;;;;;5007601;28;20048;-71
2021/05/22 07:33:26;;;;;;;7.95;1.88;;;;;;;;;;5000254;28;20116;-72
2021/05/22 07:35:53;;;;;;;7.45;1.45;;;;;;;;;;4997212;28;20476;-71
2021/05/22 07:38:19;;;;;;;9.00;1.65;;;;;;;;;;5005525;28;20025;-71
2021/05/22 07:40:45;;;;;;;6.60;2.28;;;;;;;;;;4991141;28;20022;-72
2021/05/22 07:43:11;;;;;;;8.30;1.52;;;;;;;;;;5013724;28;20022;-71
2021/05/22 07:45:37;;;;;;;7.07;1.88;;;;;;;;;;4987148;28;20037;-71
2021/05/22 07:48:03;;;;;;;8.82;1.80;;;;;;;;;;4994578;28;20026;-72
2021/05/22 07:50:31;;;;;;;7.20;1.17;;;;;;;;;;4998003;28;20030;-71
2021/05/22 07:52:56;;;;;;;4.22;1.40;;;;;;;;;;5007157;28;20384;-71
2021/05/22 07:55:22;;;;;;;7.95;1.67;;;;;;;;;;5013345;28;20030;-72
2021/05/22 07:57:49;;;;;;;8.98;2.03;;;;;;;;;;5013052;28;20072;-71
2021/05/22 08:00:15;;;;;;;9.68;2.28;;;;;;;;;;5005205;28;20009;-71
2021/05/22 08:02:42;;;;;;;10.43;2.38;;;;;;;;;;5000034;28;20485;-71
2021/05/22 08:05:08;;;;;;;7.07;1.70;;;;;;;;;;5008444;28;20015;-71
2021/05/22 08:07:34;;;;;;;12.23;2.50;;;;;;;;;;5006427;28;20030;-72
2021/05/22 08:10:01;;;;;;;8.30;1.60;;;;;;;;;;5012384;28;20026;-71
2021/05/22 08:12:27;;;;;;;13.80;2.05;;;;;;;;;;5012936;28;20057;-71
2021/05/22 08:14:53;;;;;;;8.90;2.15;;;;;;;;;;5000904;28;20104;-71
2021/05/22 08:17:19;;;;;;;10.52;1.83;;;;;;;;;;5011417;28;20121;-71
2021/05/22 08:19:45;;;;;;;9.40;1.55;;;;;;;;;;5012230;28;20026;-72
2021/05/22 08:22:11;;;;;;;10.77;2.25;;;;;;;;;;5018940;28;20037;-72
2021/05/22 08:24:37;;;;;;;9.52;2.03;;;;;;;;;;5020714;28;20021;-71
2021/05/22 08:27:03;;;;;;;12.65;2.95;;;;;;;;;;5023508;28;20470;-72
2021/05/22 08:29:29;;;;;;;5.80;2.08;;;;;;;;;;5009639;28;20029;-72
2021/05/22 08:31:55;;;;;;;7.07;2.72;;;;;;;;;;5021550;28;20022;-71
2021/05/22 08:34:21;;;;;;;10.55;2.55;;;;;;;;;;5013017;28;20059;-72
2021/05/22 08:36:47;;;;;;;9.93;3.00;;;;;;;;;;5007867;28;20030;-72
2021/05/22 08:39:13;;;;;;;12.45;2.67;;;;;;;;;;5011853;28;20074;-71
2021/05/22 08:41:39;;;;;;;12.70;3.42;;;;;;;;;;5017455;28;20438;-72
2021/05/22 08:44:05;;;;;;;5.82;2.97;;;;;;;;;;5018167;28;20026;-71
2021/05/22 08:46:32;;;;;;;8.55;2.90;;;;;;;;;;5020271;28;20490;-72
2021/05/22 08:48:58;;;;;;;7.13;2.28;;;;;;;;;;5013007;28;20021;-71
2021/05/22 08:51:24;;;;;;;6.03;2.38;;;;;;;;;;5019251;28;20381;-72
2021/05/22 08:53:50;;;;;;;8.00;2.83;;;;;;;;;;5022159;28;20108;-71
2021/05/22 08:56:16;;;;;;;9.25;3.35;;;;;;;;;;5009881;28;20145;-71
2021/05/22 08:58:43;;;;;;;6.97;3.33;;;;;;;;;;5012226;28;20494;-72
2021/05/22 09:01:09;;;;;;;5.70;2.80;;;;;;;;;;5012430;28;20030;-72
2021/05/22 09:03:35;;;;;;;8.30;2.88;;;;;;;;;;5010653;28;20030;-71
2021/05/22 09:06:02;;;;;;;7.43;2.83;;;;;;;;;;5020128;28;20605;-72
2021/05/22 09:08:29;;;;;;;9.10;3.22;;;;;;;;;;5015549;28;20346;-71
2021/05/22 09:10:55;;;;;;;5.95;2.60;;;;;;;;;;5011001;28;20029;-71
2021/05/22 09:13:23;;;;;;;5.65;3.53;;;;;;;;;;5020834;28;20056;-71
2021/05/22 09:15:54;;;;;;;6.07;2.90;;;;;;;;;;5017068;28;20460;-71
2021/05/22 09:18:21;;;;;;;10.75;2.33;;;;;;;;;;5010768;28;20025;-72
2021/05/22 09:21:07;;;;;;;6.45;1.40;;;;;;;;;;5007943;28;20026;-72
2021/05/22 09:23:39;;;;;;;5.28;0.75;;;;;;;;;;5014752;28;20027;-71
2021/05/22 09:26:06;;;;;;;5.93;0.80;;;;;;;;;;5007161;28;20108;-73
2021/05/22 09:28:33;;;;;;;3.97;0.73;;;;;;;;;;5016393;28;20025;-73
2021/05/22 09:31:00;;;;;;;6.25;0.73;;;;;;;;;;5012041;28;20108;-70
2021/05/22 09:33:30;;;;;;;4.13;0.65;;;;;;;;;;5012644;28;20036;-71
2021/05/22 09:36:00;;;;;;;4.20;1.40;;;;;;;;;;5012656;28;20022;-73
2021/05/22 09:38:26;;;;;;;;;;;;;;;;;;5007173;28;20555;-71
2021/05/22 09:40:52;;;;;;;3.38;0.60;;;;;;;;;;5014356;28;19984;-71
2021/05/22 09:43:18;;;;;;;2.80;0.80;;;;;;;;;;5001005;28;20538;-71
2021/05/22 09:45:45;;;;;;;6.03;0.80;;;;;;;;;;5010585;28;20033;-71
2021/05/22 09:48:18;;;;;;;5.93;0.80;;;;;;;;;;5009861;28;20022;-71
2021/05/22 09:50:46;;;;;;;7.05;1.10;;;;;;;;;;5009879;28;20065;-71
2021/05/22 09:53:21;;;;;;;8.82;3.92;;;;;;;;;;5014121;28;20021;-71
2021/05/22 09:56:06;;;;;;;12.70;5.03;;;;;;;;;;4996375;28;20029;-71
2021/05/22 09:58:33;;;;;;;3.92;1.65;;;;;;;;;;4989240;28;20029;-71
2021/05/22 10:00:59;;;;;;;10.50;1.85;;;;;;;;;;5011018;28;20026;-71
2021/05/22 10:03:25;;;;;;;4.75;1.77;;;;;;;;;;5006587;28;20483;-71
2021/05/22 10:05:51;;;;;;;8.68;2.38;;;;;;;;;;5018333;28;20037;-71
2021/05/22 10:08:19;;;;;;;7.95;2.97;;;;;;;;;;5018585;28;20034;-71
2021/05/22 10:10:46;;;;;;;12.77;2.45;;;;;;;;;;5015330;28;20045;-71
2021/05/22 10:13:14;;;;;;;6.60;2.78;;;;;;;;;;5008520;28;20033;-71
2021/05/22 10:15:40;;;;;;;7.75;3.00;;;;;;;;;;5011764;28;20365;-71
2021/05/22 10:18:06;;;;;;;10.98;3.08;;;;;;;;;;5008154;28;20058;-71
2021/05/22 10:20:32;;;;;;;7.55;2.17;;;;;;;;;;5001295;28;20068;-70
2021/05/22 10:22:58;;;;;;;5.68;2.40;;;;;;;;;;5012639;28;20415;-71
2021/05/22 10:25:24;;;;;;;8.73;2.38;;;;;;;;;;5000117;28;20038;-70
2021/05/22 10:27:50;;;;;;;9.23;2.65;;;;;;;;;;5011106;28;20026;-70
2021/05/22 10:30:17;;;;;;;6.40;2.67;;;;;;;;;;5002545;28;20065;-73
2021/05/22 10:32:44;;;;;;;4.25;2.97;;;;;;;;;;5017925;28;20157;-70
2021/05/22 10:35:15;;;;;;;13.25;3.40;;;;;;;;;;5016102;28;20076;-72
2021/05/22 10:37:44;;;;;;;12.55;3.30;;;;;;;;;;5017010;28;20108;-73
2021/05/22 10:40:10;;;;;;;8.63;2.43;;;;;;;;;;5023720;28;20021;-72
2021/05/22 10:42:36;;;;;;;5.68;2.58;;;;;;;;;;5019253;28;20041;-72
2021/05/22 10:45:21;;;;;;;6.47;2.60;;;;;;;;;;5020764;28;20022;-72
2021/05/22 10:47:47;;;;;;;9.43;2.33;;;;;;;;;;5018438;28;20446;-72
2021/05/22 10:50:13;;;;;;;9.27;3.25;;;;;;;;;;5021064;28;20025;-71
2021/05/22 10:52:39;;;;;;;8.70;3.55;;;;;;;;;;5024848;28;20034;-71
2021/05/22 10:55:12;;;;;;;4.93;3.10;;;;;;;;;;5009370;28;20048;-70
2021/05/22 10:57:47;;;;;;;7.63;3.08;;;;;;;;;;5017196;28;20029;-71
2021/05/22 11:00:20;;;;;;;7.15;3.33;;;;;;;;;;5006596;28;20021;-71
2021/05/22 11:02:52;;;;;;;14.13;3.72;;;;;;;;;;5010812;28;20482;-71
2021/05/22 11:05:27;;;;;;;11.40;4.63;;;;;;;;;;5012687;28;20084;-71
2021/05/22 11:08:09;;;;;;;5.22;2.03;;;;;;;;;;5008944;28;20400;-71
2021/05/22 11:10:45;;;;;;;6.72;1.95;;;;;;;;;;5011873;28;20034;-71
2021/05/22 11:13:23;;;;;;;4.20;2.00;;;;;;;;;;5018605;28;20096;-72
2021/05/22 11:15:56;;;;;;;5.35;2.33;;;;;;;;;;5016289;28;20026;-70
2021/05/22 11:18:53;;;;;;;4.97;1.77;;;;;;;;;;5018184;28;20049;-70
2021/05/22 11:21:20;;;;;;;7.13;2.03;;;;;;;;;;5014540;28;20084;-70
2021/05/22 11:24:00;;;;;;;8.32;1.65;;;;;;;;;;5019673;28;20563;-70
2021/05/22 11:26:59;;;;;;;10.23;2.03;;;;;;;;;;5015914;28;20530;-70
2021/05/22 11:29:44;;;;;;;9.65;2.08;;;;;;;;;;5004907;28;20038;-70
2021/05/22 11:32:29;;;;;;;5.88;2.05;;;;;;;;;;5021791;28;20025;-70
2021/05/22 11:34:55;;;;;;;7.72;2.08;;;;;;;;;;5014880;28;20033;-71
2021/05/22 11:37:33;;;;;;;11.52;2.08;;;;;;;;;;5023333;28;20041;-70
2021/05/22 11:39:59;;;;;;;6.13;2.25;;;;;;;;;;5020388;28;20025;-70
2021/05/22 11:42:28;;;;;;;7.93;2.25;;;;;;;;;;5019121;28;20049;-70
2021/05/22 11:44:54;;;;;;;5.47;1.83;;;;;;;;;;5008251;28;20030;-70
2021/05/22 11:47:21;;;;;;;7.68;1.73;;;;;;;;;;5021613;28;20024;-70
2021/05/22 11:49:47;;;;;;;8.40;2.17;;;;;;;;;;5024826;28;20026;-70
2021/05/22 11:52:26;;;;;;;7.85;1.65;;;;;;;;;;5025323;28;20032;-70
2021/05/22 11:54:52;;;;;;;8.73;1.50;;;;;;;;;;5012643;28;20033;-70
2021/05/22 11:57:18;;;;;;;7.65;2.22;;;;;;;;;;5024659;28;20030;-70
2021/05/22 11:59:44;;;;;;;6.82;1.70;;;;;;;;;;5022309;28;20379;-70
2021/05/22 12:02:10;;;;;;;4.80;1.70;;;;;;;;;;5023182;28;20026;-70
2021/05/22 12:04:40;;;;;;;4.97;2.05;;;;;;;;;;5016950;28;20741;-70
2021/05/22 12:07:06;;;;;;;8.50;1.95;;;;;;;;;;5021166;28;20053;-70
2021/05/22 12:09:33;;;;;;;7.45;1.63;;;;;;;;;;5017146;28;20029;-70
2021/05/22 12:12:11;;;;;;;13.02;2.30;;;;;;;;;;5012632;28;20022;-70
2021/05/22 12:14:37;;;;;;;8.82;2.00;;;;;;;;;;5008885;28;20479;-70
2021/05/22 12:17:03;;;;;;;12.90;3.38;;;;;;;;;;5010876;28;20041;-70
2021/05/22 12:19:33;;;;;;;10.10;2.45;;;;;;;;;;5010737;28;20034;-70
2021/05/22 12:21:59;;;;;;;;;;;;;;;;;;5010610;28;20033;-70
2021/05/22 12:24:25;;;;;;;6.50;1.42;;;;;;;;;;5023738;28;19909;-70
2021/05/22 12:26:52;;;;;;;8.40;1.80;;;;;;;;;;5016962;28;20391;-70
2021/05/22 12:29:19;;;;;;;6.47;1.33;;;;;;;;;;5019477;28;20025;-70
2021/05/22 12:31:58;;;;;;;9.57;1.40;;;;;;;;;;5019123;28;20053;-71
2021/05/22 12:34:26;;;;;;;7.87;1.73;;;;;;;;;;5008583;28;20026;-70
2021/05/22 12:36:55;;;;;;;8.82;2.80;;;;;;;;;;5016939;28;20260;-70
2021/05/22 12:39:21;;;;;;;6.20;1.45;;;;;;;;;;5018464;28;20102;-71
2021/05/22 12:41:47;;;;;;;12.68;5.85;;;;;;;;;;5022719;28;20116;-70
2021/05/22 12:44:20;;;;;;;11.52;4.20;;;;;;;;;;5025188;28;20029;-70
2021/05/22 12:46:53;;;;;;;16.58;3.22;;;;;;;;;;5021373;28;20084;-70
2021/05/22 12:49:19;;;;;;;8.10;1.95;;;;;;;;;;5016292;28;20100;-70
2021/05/22 12:51:46;;;;;;;9.90;2.17;;;;;;;;;;5011930;28;20105;-70
2021/05/22 12:54:29;;;;;;;10.70;2.15;;;;;;;;;;5016441;28;20064;-70
2021/05/22 12:57:17;;;;;;;5.75;1.40;;;;;;;;;;5020010;28;20018;-70
2021/05/22 13:00:06;;;;;;;6.50;2.10;;;;;;;;;;5014466;28;20018;-70
2021/05/22 13:02:37;;;;;;;6.47;2.05;;;;;;;;;;5014329;28;20049;-70
2021/05/22 13:05:10;;;;;;;9.25;1.33;;;;;;;;;;5012661;28;20038;-70
2021/05/22 13:07:42;;;;;;;4.63;0.88;;;;;;;;;;5005298;28;20033;-70
2021/05/22 13:10:09;;;;;;;6.97;1.35;;;;;;;;;;5006810;28;20058;-70
2021/05/22 13:12:35;;;;;;;6.28;1.10;;;;;;;;;;5017458;28;20048;-70
2021/05/22 13:15:02;;;;;;;5.28;1.25;;;;;;;;;;5017283;28;20439;-70
2021/05/22 13:17:48;;;;;;;6.20;1.33;;;;;;;;;;5006131;28;20484;-70
2021/05/22 13:20:18;;;;;;;5.85;1.13;;;;;;;;;;5006816;28;20051;-70
2021/05/22 13:22:44;;;;;;;7.72;2.00;;;;;;;;;;5008069;28;20404;-73
2021/05/22 13:25:12;;;;;;;6.70;1.90;;;;;;;;;;5007429;28;20095;-71
2021/05/22 13:27:58;;;;;;;9.63;1.65;;;;;;;;;;5006672;28;20108;-70
2021/05/22 13:30:24;;;;;;;5.03;1.58;;;;;;;;;;5008173;28;20399;-70
2021/05/22 13:32:50;;;;;;;7.28;2.55;;;;;;;;;;5012766;28;20029;-70
2021/05/22 13:35:16;;;;;;;6.40;1.70;;;;;;;;;;5016322;28;20099;-70
2021/05/22 13:37:42;;;;;;;3.20;0.82;;;;;;;;;;5015819;28;20025;-70
2021/05/22 13:40:08;;;;;;;5.97;1.02;;;;;;;;;;5013986;28;20647;-70
2021/05/22 13:42:34;;;;;;;4.25;1.20;;;;;;;;;;5007514;28;20027;-70
2021/05/22 13:45:00;;;;;;;3.75;0.88;;;;;;;;;;5008601;28;20038;-69
2021/05/22 13:47:26;;;;;;;2.92;1.10;;;;;;;;;;4993574;28;20045;-73
2021/05/22 13:49:52;;;;;;;3.55;1.23;;;;;;;;;;5001298;28;20026;-69
2021/05/22 13:52:18;;;;;;;2.45;0.90;;;;;;;;;;5012233;28;20037;-70
2021/05/22 13:54:44;;;;;;;3.80;0.70;;;;;;;;;;5003591;28;20028;-70
2021/05/22 13:57:10;;;;;;;3.75;1.27;;;;;;;;;;5014889;28;20386;-70
2021/05/22 13:59:36;;;;;;;6.43;1.10;;;;;;;;;;5009392;28;20058;-70
2021/05/22 14:02:03;;;;;;;8.05;1.75;;;;;;;;;;5002025;28;20049;-70
2021/05/22 14:04:29;;;;;;;5.38;1.75;;;;;;;;;;5001148;28;20026;-70
2021/05/22 14:06:55;;;;;;;8.32;1.75;;;;;;;;;;5010981;28;20414;-70
2021/05/22 14:09:21;;;;;;;5.43;1.90;;;;;;;;;;4998118;28;20101;-70
2021/05/22 14:11:47;;;;;;;6.13;1.67;;;;;;;;;;4985298;28;20022;-70
2021/05/22 14:14:13;;;;;;;4.90;1.35;;;;;;;;;;4996928;28;20326;-70
2021/05/22 14:16:39;;;;;;;5.97;1.77;;;;;;;;;;4993605;28;20479;-70
2021/05/22 14:19:05;;;;;;;3.67;1.13;;;;;;;;;;5004236;28;20028;-70
2021/05/22 14:21:31;;;;;;;7.53;1.90;;;;;;;;;;5002007;28;20053;-70
2021/05/22 14:23:58;;;;;;;4.78;1.70;;;;;;;;;;4997558;28;20034;-70
2021/05/22 14:26:24;;;;;;;7.25;1.90;;;;;;;;;;5007711;28;20034;-70
2021/05/22 14:28:50;;;;;;;7.20;1.67;;;;;;;;;;5005192;28;20042;-70
2021/05/22 14:31:17;;;;;;;7.25;3.17;;;;;;;;;;5003933;28;20025;-70
2021/05/22 14:33:43;;;;;;;6.10;1.88;;;;;;;;;;4987610;28;20025;-70
2021/05/22 14:36:09;;;;;;;5.40;1.75;;;;;;;;;;5002499;28;20027;-70
2021/05/22 14:38:35;;;;;;;5.00;1.58;;;;;;;;;;5010933;28;20022;-70
2021/05/22 14:41:01;;;;;;;7.93;1.38;;;;;;;;;;4977246;28;20037;-70
2021/05/22 14:43:29;;;;;;;6.50;2.15;;;;;;;;;;4999215;28;20109;-70